createdAt,value
2022-12-01T00:00:49.296Z,-9.21
2022-12-01T00:02:00.458Z,-9.37
2022-12-01T00:03:10.371Z,-9.20
2022-12-01T00:04:17.083Z,-9.14
2022-12-01T00:05:23.080Z,-9.22
2022-12-01T00:06:46.640Z,-9.21
2022-12-01T00:07:57.222Z,-9.14
2022-12-01T00:09:20.355Z,-9.09
2022-12-01T00:10:36.137Z,-9.16
2022-12-01T00:11:49.158Z,-9.25
2022-12-01T00:13:01.075Z,-9.30
2022-12-01T00:14:10.980Z,-9.22
2022-12-01T00:15:17.847Z,-9.21
2022-12-01T00:16:23.633Z,-9.20
2022-12-01T00:17:32.023Z,-9.24
2022-12-01T00:18:35.709Z,-9.30
2022-12-01T00:19:39.291Z,-9.43
2022-12-01T00:20:46.551Z,-9.29
2022-12-01T00:21:59.571Z,-9.34
2022-12-01T00:23:08.689Z,-9.32
2022-12-01T00:24:13.127Z,-9.38
2022-12-01T00:25:20.954Z,-9.49
2022-12-01T00:26:24.657Z,-9.49
2022-12-01T00:27:40.525Z,-9.31
2022-12-01T00:28:59.829Z,-9.29
2022-12-01T00:30:13.369Z,-9.32
2022-12-01T00:31:18.473Z,-9.35
2022-12-01T00:32:33.701Z,-9.45
2022-12-01T00:33:38.045Z,-9.25
2022-12-01T00:34:49.347Z,-9.27
2022-12-01T00:35:59.152Z,-9.30
2022-12-01T00:37:06.271Z,-9.29
2022-12-01T00:38:11.352Z,-9.34
2022-12-01T00:39:19.989Z,-9.29
2022-12-01T00:40:28.147Z,-9.34
2022-12-01T00:41:34.096Z,-9.42
2022-12-01T00:42:55.180Z,-9.51
2022-12-01T00:43:59.259Z,-9.54
2022-12-01T00:45:07.801Z,-9.45
2022-12-01T00:46:17.810Z,-9.57
2022-12-01T00:47:23.021Z,-9.62
2022-12-01T00:48:31.296Z,-9.55
2022-12-01T00:49:35.339Z,-9.68
2022-12-01T00:50:40.593Z,-9.68
2022-12-01T00:51:48.943Z,-9.60
2022-12-01T00:52:56.696Z,-9.66
2022-12-01T00:54:02.418Z,-9.76
2022-12-01T00:55:06.790Z,-9.79
2022-12-01T00:56:11.318Z,-9.68
2022-12-01T00:57:14.436Z,-9.56
2022-12-01T00:58:22.978Z,-9.68
2022-12-01T00:59:28.584Z,-9.67
2022-12-01T01:00:31.960Z,-9.72
2022-12-01T01:01:40.388Z,-9.74
2022-12-01T01:02:42.864Z,-9.83
2022-12-01T01:03:51.461Z,-9.79
2022-12-01T01:04:54.036Z,-9.75
2022-12-01T01:06:07.514Z,-9.83
2022-12-01T01:07:15.962Z,-9.86
2022-12-01T01:08:31.092Z,-9.90
2022-12-01T01:09:35.289Z,-9.92
2022-12-01T01:10:44.686Z,-9.85
2022-12-01T01:11:55.782Z,-9.86
2022-12-01T01:13:01.390Z,-9.69
2022-12-01T01:14:11.337Z,-9.81
2022-12-01T01:15:18.818Z,-9.88
2022-12-01T01:16:23.998Z,-9.93
2022-12-01T01:17:38.526Z,-9.85
2022-12-01T01:18:42.837Z,-10.00
2022-12-01T01:19:49.021Z,-9.83
2022-12-01T01:21:06.362Z,-9.79
2022-12-01T01:22:10.690Z,-9.92
2022-12-01T01:23:22.046Z,-9.85
2022-12-01T01:24:35.443Z,-9.92
2022-12-01T01:25:49.435Z,-9.86
2022-12-01T01:26:57.171Z,-9.85
2022-12-01T01:28:02.995Z,-9.88
2022-12-01T01:29:13.337Z,-9.86
2022-12-01T01:30:19.387Z,-9.86
2022-12-01T01:31:26.744Z,-9.86
2022-12-01T01:32:29.851Z,-9.91
2022-12-01T01:33:32.854Z,-9.82
2022-12-01T01:34:40.785Z,-9.94
2022-12-01T01:35:44.718Z,-9.94
2022-12-01T01:36:53.081Z,-10.03
2022-12-01T01:37:58.066Z,-9.95
2022-12-01T01:39:01.591Z,-9.96
2022-12-01T01:40:05.446Z,-9.87
2022-12-01T01:41:08.348Z,-9.83
2022-12-01T01:42:17.264Z,-9.83
2022-12-01T01:43:44.769Z,-9.89
2022-12-01T01:44:54.888Z,-9.87
2022-12-01T01:45:57.276Z,-9.97
2022-12-01T01:47:00.939Z,-9.95
2022-12-01T01:48:04.595Z,-10.01
2022-12-01T01:49:15.412Z,-10.06
2022-12-01T01:50:24.309Z,-10.20
2022-12-01T01:51:30.813Z,-10.12
2022-12-01T01:52:43.069Z,-10.23
2022-12-01T01:53:49.380Z,-10.25
2022-12-01T01:55:00.558Z,-10.19
2022-12-01T01:56:08.239Z,-10.22
2022-12-01T01:57:19.305Z,-10.08
2022-12-01T01:58:23.035Z,-10.18
2022-12-01T01:59:33.837Z,-10.10
2022-12-01T02:00:40.239Z,-10.13
2022-12-01T02:01:45.191Z,-10.00
2022-12-01T02:02:54.489Z,-10.06
2022-12-01T02:04:03.801Z,-9.95
2022-12-01T02:05:14.284Z,-10.05
2022-12-01T02:06:17.997Z,-9.99
2022-12-01T02:07:31.658Z,-9.99
2022-12-01T02:08:38.144Z,-10.00
2022-12-01T02:09:43.256Z,-9.92
2022-12-01T02:11:06.015Z,-9.83
2022-12-01T02:12:23.666Z,-9.83
2022-12-01T02:14:03.295Z,-9.94
2022-12-01T02:15:27.598Z,-9.92
2022-12-01T02:16:58.865Z,-9.95
2022-12-01T02:18:28.596Z,-9.78
2022-12-01T02:19:33.580Z,-9.84
2022-12-01T02:21:05.694Z,-9.80
2022-12-01T02:22:43.016Z,-10.07
2022-12-01T02:24:02.497Z,-10.15
2022-12-01T02:25:19.937Z,-10.26
2022-12-01T02:26:45.582Z,-10.28
2022-12-01T02:28:11.290Z,-10.16
2022-12-01T02:29:27.767Z,-10.23
2022-12-01T02:30:35.512Z,-10.05
2022-12-01T02:32:02.937Z,-10.27
2022-12-01T02:33:18.184Z,-10.33
2022-12-01T02:34:35.273Z,-10.34
2022-12-01T02:35:52.517Z,-10.31
2022-12-01T02:37:14.443Z,-10.38
2022-12-01T02:38:34.122Z,-10.50
2022-12-01T02:40:00.457Z,-10.67
2022-12-01T02:41:32.491Z,-10.51
2022-12-01T02:43:07.129Z,-10.43
2022-12-01T02:44:21.746Z,-10.54
2022-12-01T02:45:35.033Z,-10.41
2022-12-01T02:46:48.978Z,-10.39
2022-12-01T02:47:57.358Z,-10.47
2022-12-01T02:49:08.453Z,-10.41
2022-12-01T02:50:18.115Z,-10.47
2022-12-01T02:51:33.598Z,-10.47
2022-12-01T02:52:37.094Z,-10.33
2022-12-01T02:53:43.909Z,-10.34
2022-12-01T02:54:50.207Z,-10.30
2022-12-01T02:55:56.369Z,-10.52
2022-12-01T02:56:59.720Z,-10.56
2022-12-01T02:58:17.141Z,-10.56
2022-12-01T02:59:24.925Z,-10.61
2022-12-01T03:00:31.816Z,-10.68
2022-12-01T03:01:53.563Z,-10.70
2022-12-01T03:03:25.023Z,-10.69
2022-12-01T03:04:38.245Z,-10.59
2022-12-01T03:06:04.022Z,-10.66
2022-12-01T03:07:27.911Z,-10.75
2022-12-01T03:08:48.644Z,-10.66
2022-12-01T03:10:17.842Z,-10.58
2022-12-01T03:11:30.709Z,-10.47
2022-12-01T03:12:55.408Z,-10.54
2022-12-01T03:14:15.154Z,-10.49
2022-12-01T03:15:36.723Z,-10.38
2022-12-01T03:17:01.264Z,-10.56
2022-12-01T03:18:44.104Z,-10.58
2022-12-01T03:20:01.243Z,-10.67
2022-12-01T03:21:21.697Z,-10.71
2022-12-01T03:22:36.839Z,-10.64
2022-12-01T03:23:45.527Z,-10.59
2022-12-01T03:25:00.524Z,-10.59
2022-12-01T03:26:12.948Z,-10.67
2022-12-01T03:27:29.559Z,-10.56
2022-12-01T03:28:42.014Z,-10.45
2022-12-01T03:29:51.196Z,-10.40
2022-12-01T03:31:09.417Z,-10.40
2022-12-01T03:32:50.627Z,-10.33
2022-12-01T03:34:08.473Z,-10.39
2022-12-01T03:35:19.747Z,-10.38
2022-12-01T03:36:34.013Z,-10.32
2022-12-01T03:37:50.186Z,-10.20
2022-12-01T03:39:00.368Z,-10.43
2022-12-01T03:40:10.338Z,-10.62
2022-12-01T03:41:32.345Z,-10.54
2022-12-01T03:42:43.844Z,-10.57
2022-12-01T03:43:53.959Z,-10.66
2022-12-01T03:45:06.622Z,-10.66
2022-12-01T03:46:20.809Z,-10.58
2022-12-01T03:47:33.352Z,-10.53
2022-12-01T03:48:41.068Z,-10.42
2022-12-01T03:49:46.903Z,-10.48
2022-12-01T03:50:49.602Z,-10.47
2022-12-01T03:52:04.407Z,-10.48
2022-12-01T03:53:26.480Z,-10.52
2022-12-01T03:55:12.780Z,-10.38
2022-12-01T03:56:30.887Z,-10.56
2022-12-01T03:57:58.834Z,-10.67
2022-12-01T03:59:09.110Z,-10.67
2022-12-01T04:00:14.590Z,-10.62
2022-12-01T04:01:21.159Z,-10.55
2022-12-01T04:02:27.919Z,-10.52
2022-12-01T04:03:30.782Z,-10.47
2022-12-01T04:04:33.269Z,-10.52
2022-12-01T04:05:39.398Z,-10.52
2022-12-01T04:06:47.110Z,-10.30
2022-12-01T04:07:51.848Z,-10.32
2022-12-01T04:08:54.793Z,-10.24
2022-12-01T04:09:58.225Z,-10.39
2022-12-01T04:11:30.973Z,-10.35
2022-12-01T04:12:39.178Z,-10.38
2022-12-01T04:13:43.466Z,-10.26
2022-12-01T04:14:52.660Z,-10.30
2022-12-01T04:15:55.491Z,-10.22
2022-12-01T04:16:58.032Z,-10.16
2022-12-01T04:18:02.999Z,-10.27
2022-12-01T04:19:06.298Z,-10.25
2022-12-01T04:20:13.611Z,-10.22
2022-12-01T04:21:18.821Z,-10.19
2022-12-01T04:22:25.406Z,-10.10
2022-12-01T04:23:46.459Z,-10.25
2022-12-01T04:24:49.198Z,-10.32
2022-12-01T04:26:05.007Z,-10.49
2022-12-01T04:27:12.208Z,-10.60
2022-12-01T04:28:14.768Z,-10.64
2022-12-01T04:29:17.154Z,-10.66
2022-12-01T04:30:19.950Z,-10.65
2022-12-01T04:31:22.509Z,-10.63
2022-12-01T04:32:25.310Z,-10.48
2022-12-01T04:33:30.228Z,-10.49
2022-12-01T04:34:34.106Z,-10.45
2022-12-01T04:35:38.903Z,-10.41
2022-12-01T04:36:41.214Z,-10.53
2022-12-01T04:37:43.640Z,-10.47
2022-12-01T04:38:48.013Z,-10.41
2022-12-01T04:39:50.556Z,-10.36
2022-12-01T04:40:53.530Z,-10.32
2022-12-01T04:41:55.743Z,-10.29
2022-12-01T04:42:58.047Z,-10.38
2022-12-01T04:44:00.247Z,-10.43
2022-12-01T04:45:05.464Z,-10.38
2022-12-01T04:46:08.632Z,-10.47
2022-12-01T04:47:10.978Z,-10.32
2022-12-01T04:48:15.524Z,-10.34
2022-12-01T04:49:18.041Z,-10.39
2022-12-01T04:50:21.571Z,-10.32
2022-12-01T04:51:25.951Z,-10.39
2022-12-01T04:52:32.122Z,-10.24
2022-12-01T04:53:37.679Z,-10.40
2022-12-01T04:54:40.036Z,-10.52
2022-12-01T04:55:42.472Z,-10.46
2022-12-01T04:56:48.243Z,-10.39
2022-12-01T04:57:50.639Z,-10.42
2022-12-01T04:58:56.173Z,-10.52
2022-12-01T04:59:58.425Z,-10.43
2022-12-01T05:01:06.271Z,-10.41
2022-12-01T05:02:08.555Z,-10.37
2022-12-01T05:03:15.037Z,-10.40
2022-12-01T05:04:19.043Z,-10.46
2022-12-01T05:05:21.511Z,-10.24
2022-12-01T05:06:26.981Z,-10.25
2022-12-01T05:07:30.671Z,-10.21
2022-12-01T05:08:34.921Z,-10.48
2022-12-01T05:09:43.013Z,-10.30
2022-12-01T05:10:46.915Z,-10.24
2022-12-01T05:11:52.376Z,-10.38
2022-12-01T05:12:55.729Z,-10.31
2022-12-01T05:14:00.306Z,-10.21
2022-12-01T05:15:04.824Z,-10.32
2022-12-01T05:16:14.630Z,-10.47
2022-12-01T05:17:18.416Z,-10.37
2022-12-01T05:18:20.676Z,-10.40
2022-12-01T05:20:21.664Z,-10.48
2022-12-01T05:21:26.916Z,-10.53
2022-12-01T05:22:57.226Z,-10.56
2022-12-01T05:23:54.751Z,-10.44
2022-12-01T05:25:03.838Z,-10.47
2022-12-01T05:26:19.971Z,-10.41
2022-12-01T05:27:23.381Z,-10.51
2022-12-01T05:28:28.808Z,-10.32
2022-12-01T05:29:36.814Z,-10.41
2022-12-01T05:30:58.747Z,-10.34
2022-12-01T05:32:05.313Z,-10.37
2022-12-01T05:33:07.537Z,-10.36
2022-12-01T05:34:09.797Z,-10.21
2022-12-01T05:35:12.048Z,-10.43
2022-12-01T05:36:14.968Z,-10.36
2022-12-01T05:37:18.509Z,-10.30
2022-12-01T05:38:22.145Z,-10.27
2022-12-01T05:39:24.112Z,-10.26
2022-12-01T05:40:26.876Z,-10.23
2022-12-01T05:41:29.056Z,-10.19
2022-12-01T05:42:32.980Z,-10.20
2022-12-01T05:43:35.032Z,-10.39
2022-12-01T05:44:37.293Z,-10.40
2022-12-01T05:45:39.570Z,-10.40
2022-12-01T05:46:50.432Z,-10.40
2022-12-01T05:47:56.247Z,-10.32
2022-12-01T05:48:58.382Z,-10.38
2022-12-01T05:50:05.522Z,-10.28
2022-12-01T05:51:12.817Z,-10.25
2022-12-01T05:52:14.848Z,-10.26
2022-12-01T05:53:17.581Z,-10.23
2022-12-01T05:54:20.167Z,-10.20
2022-12-01T05:55:22.276Z,-10.23
2022-12-01T05:56:29.990Z,-10.23
2022-12-01T05:57:36.013Z,-10.18
2022-12-01T05:58:39.429Z,-10.19
2022-12-01T05:59:41.704Z,-9.99
2022-12-01T06:00:45.953Z,-9.94
2022-12-01T06:01:48.517Z,-9.94
2022-12-01T06:02:51.666Z,-10.06
2022-12-01T06:03:54.691Z,-10.00
2022-12-01T06:04:56.877Z,-9.96
2022-12-01T06:05:58.910Z,-9.91
2022-12-01T06:07:00.857Z,-9.84
2022-12-01T06:08:03.295Z,-9.74
2022-12-01T06:09:05.261Z,-9.74
2022-12-01T06:10:10.919Z,-9.67
2022-12-01T06:11:13.641Z,-9.53
2022-12-01T06:12:15.611Z,-9.70
2022-12-01T06:13:17.714Z,-9.64
2022-12-01T06:14:22.027Z,-9.62
2022-12-01T06:15:24.113Z,-9.63
2022-12-01T06:16:26.182Z,-9.52
2022-12-01T06:17:28.427Z,-9.55
2022-12-01T06:18:34.818Z,-9.49
2022-12-01T06:19:38.368Z,-9.61
2022-12-01T06:20:41.647Z,-9.46
2022-12-01T06:21:45.258Z,-9.33
2022-12-01T06:22:49.657Z,-9.21
2022-12-01T06:23:58.684Z,-9.21
2022-12-01T06:25:04.481Z,-9.36
2022-12-01T06:26:06.638Z,-9.26
2022-12-01T06:27:08.623Z,-9.31
2022-12-01T06:28:11.009Z,-9.26
2022-12-01T06:29:13.332Z,-9.28
2022-12-01T06:30:19.271Z,-9.22
2022-12-01T06:31:21.620Z,-9.25
2022-12-01T06:32:24.006Z,-9.23
2022-12-01T06:33:29.498Z,-9.21
2022-12-01T06:34:33.780Z,-9.20
2022-12-01T06:35:37.143Z,-9.23
2022-12-01T06:36:41.649Z,-9.22
2022-12-01T06:37:46.467Z,-9.13
2022-12-01T06:38:48.439Z,-9.13
2022-12-01T06:39:50.583Z,-9.00
2022-12-01T06:40:53.127Z,-8.98
2022-12-01T06:41:55.515Z,-8.96
2022-12-01T06:43:05.395Z,-8.90
2022-12-01T06:44:07.690Z,-8.79
2022-12-01T06:45:11.338Z,-8.67
2022-12-01T06:46:13.448Z,-8.56
2022-12-01T06:47:16.612Z,-8.61
2022-12-01T06:48:19.178Z,-8.59
2022-12-01T06:49:22.365Z,-8.67
2022-12-01T06:50:25.238Z,-8.63
2022-12-01T06:51:27.421Z,-8.41
2022-12-01T06:52:29.389Z,-8.43
2022-12-01T06:53:31.469Z,-8.45
2022-12-01T06:54:33.703Z,-8.65
2022-12-01T06:55:38.593Z,-8.56
2022-12-01T06:56:43.170Z,-8.40
2022-12-01T06:57:45.438Z,-8.46
2022-12-01T06:58:49.961Z,-8.48
2022-12-01T06:59:53.026Z,-8.58
2022-12-01T07:00:55.656Z,-8.53
2022-12-01T07:01:58.083Z,-8.52
2022-12-01T07:03:00.761Z,-8.40
2022-12-01T07:04:09.088Z,-8.49
2022-12-01T07:05:11.452Z,-8.69
2022-12-01T07:06:14.511Z,-8.57
2022-12-01T07:07:20.465Z,-8.40
2022-12-01T07:08:26.261Z,-8.50
2022-12-01T07:09:28.640Z,-8.26
2022-12-01T07:10:32.949Z,-8.13
2022-12-01T07:11:36.676Z,-7.90
2022-12-01T07:12:39.603Z,-7.64
2022-12-01T07:13:45.616Z,-7.76
2022-12-01T07:14:59.116Z,-7.90
2022-12-01T07:16:03.539Z,-7.92
2022-12-01T07:17:05.690Z,-7.99
2022-12-01T07:18:07.884Z,-8.11
2022-12-01T07:19:09.882Z,-8.11
2022-12-01T07:20:12.345Z,-8.12
2022-12-01T07:21:16.420Z,-7.97
2022-12-01T07:22:18.518Z,-8.01
2022-12-01T07:23:22.927Z,-7.89
2022-12-01T07:24:25.417Z,-7.71
2022-12-01T07:25:27.438Z,-7.99
2022-12-01T07:26:29.517Z,-8.10
2022-12-01T07:27:32.808Z,-8.19
2022-12-01T07:28:34.817Z,-8.19
2022-12-01T07:29:36.830Z,-8.18
2022-12-01T07:30:39.236Z,-8.04
2022-12-01T07:31:41.542Z,-8.00
2022-12-01T07:32:44.708Z,-8.04
2022-12-01T07:33:46.818Z,-8.10
2022-12-01T07:34:48.880Z,-7.92
2022-12-01T07:35:59.167Z,-7.90
2022-12-01T07:37:03.791Z,-7.88
2022-12-01T07:38:15.535Z,-7.98
2022-12-01T07:39:23.951Z,-7.99
2022-12-01T07:40:28.678Z,-7.79
2022-12-01T07:41:32.189Z,-7.84
2022-12-01T07:42:34.293Z,-7.80
2022-12-01T07:43:37.637Z,-7.71
2022-12-01T07:44:40.743Z,-7.88
2022-12-01T07:45:43.071Z,-7.64
2022-12-01T07:46:45.088Z,-7.70
2022-12-01T07:47:47.482Z,-7.62
2022-12-01T07:48:53.472Z,-7.29
2022-12-01T07:49:55.921Z,-7.15
2022-12-01T07:50:58.061Z,-7.12
2022-12-01T07:52:01.642Z,-7.15
2022-12-01T07:53:04.893Z,-6.95
2022-12-01T07:54:08.427Z,-6.93
2022-12-01T07:55:11.639Z,-7.17
2022-12-01T07:56:14.273Z,-7.22
2022-12-01T07:57:16.387Z,-7.19
2022-12-01T07:58:18.337Z,-7.35
2022-12-01T07:59:21.613Z,-7.36
2022-12-01T08:00:23.751Z,-7.46
2022-12-01T08:01:26.113Z,-7.52
2022-12-01T08:02:29.743Z,-7.43
2022-12-01T08:03:33.102Z,-7.72
2022-12-01T08:04:35.042Z,-7.35
2022-12-01T08:05:41.853Z,-7.19
2022-12-01T08:06:44.464Z,-7.15
2022-12-01T08:07:46.493Z,-7.29
2022-12-01T08:08:53.016Z,-6.90
2022-12-01T08:09:56.589Z,-6.80
2022-12-01T08:11:03.544Z,-6.71
2022-12-01T08:12:06.349Z,-6.93
2022-12-01T08:13:14.252Z,-6.87
2022-12-01T08:14:19.683Z,-7.05
2022-12-01T08:15:22.007Z,-6.84
2022-12-01T08:16:24.820Z,-7.04
2022-12-01T08:17:26.853Z,-7.02
2022-12-01T08:18:30.626Z,-7.11
2022-12-01T08:19:32.918Z,-7.01
2022-12-01T08:20:34.884Z,-7.01
2022-12-01T08:21:37.752Z,-6.62
2022-12-01T08:22:41.017Z,-6.63
2022-12-01T08:23:45.523Z,-6.76
2022-12-01T08:24:47.480Z,-6.83
2022-12-01T08:25:49.472Z,-6.86
2022-12-01T08:26:51.683Z,-6.80
2022-12-01T08:27:55.095Z,-6.84
2022-12-01T08:29:13.551Z,-7.19
2022-12-01T08:30:20.168Z,-6.78
2022-12-01T08:31:27.695Z,-6.92
2022-12-01T08:32:32.814Z,-7.27
2022-12-01T08:33:38.277Z,-6.96
2022-12-01T08:34:53.380Z,-6.79
2022-12-01T08:35:56.411Z,-6.61
2022-12-01T08:36:58.757Z,-6.60
2022-12-01T08:38:01.871Z,-6.69
2022-12-01T08:39:04.490Z,-6.56
2022-12-01T08:40:08.033Z,-6.54
2022-12-01T08:41:10.889Z,-6.56
2022-12-01T08:42:13.313Z,-6.39
2022-12-01T08:43:49.490Z,-6.29
2022-12-01T08:44:48.043Z,-6.12
2022-12-01T08:47:15.736Z,-6.28
2022-12-01T08:48:21.368Z,-6.14
2022-12-01T08:49:23.915Z,-6.43
2022-12-01T08:50:28.148Z,-6.27
2022-12-01T08:51:32.090Z,-6.11
2022-12-01T08:52:37.994Z,-6.15
2022-12-01T08:53:45.670Z,-6.13
2022-12-01T08:54:53.291Z,-6.13
2022-12-01T08:56:01.799Z,-6.12
2022-12-01T08:57:06.764Z,-6.26
2022-12-01T08:58:09.097Z,-6.23
2022-12-01T08:59:11.749Z,-6.31
2022-12-01T09:00:16.592Z,-6.47
2022-12-01T09:01:19.895Z,-6.33
2022-12-01T09:02:24.728Z,-6.09
2022-12-01T09:03:28.300Z,-5.85
2022-12-01T09:04:31.416Z,-5.72
2022-12-01T09:05:39.265Z,-5.68
2022-12-01T09:06:47.320Z,-5.24
2022-12-01T09:08:09.376Z,-5.32
2022-12-01T09:09:19.243Z,-5.53
2022-12-01T09:10:23.150Z,-5.36
2022-12-01T09:11:25.629Z,-5.39
2022-12-01T09:12:29.828Z,-5.40
2022-12-01T09:13:35.166Z,-5.72
2022-12-01T09:14:42.051Z,-5.32
2022-12-01T09:15:44.429Z,-5.55
2022-12-01T09:16:50.000Z,-5.67
2022-12-01T09:17:52.155Z,-5.65
2022-12-01T09:18:55.729Z,-5.57
2022-12-01T09:19:58.119Z,-6.25
2022-12-01T09:21:01.096Z,-6.60
2022-12-01T09:22:05.707Z,-6.41
2022-12-01T09:23:08.109Z,-6.30
2022-12-01T09:24:19.259Z,-6.58
2022-12-01T09:25:22.831Z,-6.46
2022-12-01T09:26:25.410Z,-6.44
2022-12-01T09:27:28.142Z,-6.79
2022-12-01T09:28:30.494Z,-6.71
2022-12-01T09:29:40.087Z,-6.61
2022-12-01T09:30:42.642Z,-6.46
2022-12-01T09:31:47.761Z,-6.42
2022-12-01T09:32:50.017Z,-6.29
2022-12-01T09:33:57.034Z,-6.46
2022-12-01T09:34:59.534Z,-6.62
2022-12-01T09:36:09.959Z,-6.84
2022-12-01T09:37:12.328Z,-6.74
2022-12-01T09:38:14.975Z,-6.82
2022-12-01T09:39:20.100Z,-6.74
2022-12-01T09:40:41.207Z,-7.02
2022-12-01T09:41:52.544Z,-7.11
2022-12-01T09:42:55.991Z,-7.25
2022-12-01T09:44:31.041Z,-7.39
2022-12-01T09:45:39.668Z,-7.36
2022-12-01T09:46:47.142Z,-7.29
2022-12-01T09:47:51.360Z,-7.17
2022-12-01T09:48:57.430Z,-7.24
2022-12-01T09:50:02.357Z,-7.29
2022-12-01T09:51:05.880Z,-7.29
2022-12-01T09:52:13.112Z,-7.41
2022-12-01T09:53:21.720Z,-7.33
2022-12-01T09:54:24.097Z,-7.49
2022-12-01T09:55:27.865Z,-7.47
2022-12-01T09:56:43.248Z,-7.55
2022-12-01T09:57:52.836Z,-7.29
2022-12-01T09:59:13.340Z,-7.26
2022-12-01T10:00:22.775Z,-7.25
2022-12-01T10:01:39.778Z,-7.26
2022-12-01T10:02:55.163Z,-7.29
2022-12-01T10:04:01.051Z,-7.13
2022-12-01T10:05:11.185Z,-7.04
2022-12-01T10:06:32.476Z,-6.81
2022-12-01T10:07:43.472Z,-6.71
2022-12-01T10:09:14.886Z,-6.82
2022-12-01T10:10:46.039Z,-6.80
2022-12-01T10:11:51.123Z,-6.74
2022-12-01T10:12:53.663Z,-6.81
2022-12-01T10:13:58.445Z,-6.88
2022-12-01T10:15:29.947Z,-6.88
2022-12-01T10:16:46.322Z,-6.82
2022-12-01T10:18:05.032Z,-6.70
2022-12-01T10:19:28.535Z,-6.73
2022-12-01T10:20:41.572Z,-6.59
2022-12-01T10:22:05.542Z,-6.52
2022-12-01T10:23:37.196Z,-6.41
2022-12-01T10:24:59.217Z,-6.51
2022-12-01T10:26:14.797Z,-6.49
2022-12-01T10:27:25.600Z,-6.40
2022-12-01T10:28:36.688Z,-6.42
2022-12-01T10:29:47.585Z,-6.56
2022-12-01T10:30:53.029Z,-6.43
2022-12-01T10:32:01.116Z,-6.44
2022-12-01T10:33:20.559Z,-6.51
2022-12-01T10:34:39.733Z,-6.44
2022-12-01T10:35:42.050Z,-6.52
2022-12-01T10:36:44.522Z,-6.55
2022-12-01T10:37:50.250Z,-6.51
2022-12-01T10:39:01.591Z,-6.43
2022-12-01T10:40:05.158Z,-6.74
2022-12-01T10:41:15.322Z,-6.66
2022-12-01T10:42:44.635Z,-6.92
2022-12-01T10:43:52.073Z,-6.94
2022-12-01T10:45:03.231Z,-6.99
2022-12-01T10:46:28.093Z,-7.03
2022-12-01T10:47:31.770Z,-6.71
2022-12-01T10:48:33.737Z,-6.86
2022-12-01T10:49:43.264Z,-7.03
2022-12-01T10:50:53.241Z,-7.01
2022-12-01T10:51:58.533Z,-7.02
2022-12-01T10:53:01.793Z,-6.94
2022-12-01T10:54:12.345Z,-6.92
2022-12-01T10:55:23.931Z,-6.98
2022-12-01T10:56:26.233Z,-6.92
2022-12-01T10:57:31.238Z,-6.91
2022-12-01T10:58:44.681Z,-6.92
2022-12-01T11:00:01.614Z,-6.78
2022-12-01T11:01:08.798Z,-6.63
2022-12-01T11:02:22.845Z,-6.64
2022-12-01T11:03:31.900Z,-6.65
2022-12-01T11:04:57.513Z,-6.56
2022-12-01T11:06:05.065Z,-6.46
2022-12-01T11:07:07.672Z,-6.39
2022-12-01T11:08:37.338Z,-6.62
2022-12-01T11:09:39.583Z,-6.83
2022-12-01T11:10:51.472Z,-6.66
2022-12-01T11:12:01.868Z,-6.76
2022-12-01T11:13:13.259Z,-6.75
2022-12-01T11:14:21.536Z,-6.75
2022-12-01T11:15:28.246Z,-6.56
2022-12-01T11:16:50.542Z,-6.84
2022-12-01T11:18:08.015Z,-6.83
2022-12-01T11:19:29.834Z,-6.76
2022-12-01T11:20:36.077Z,-6.59
2022-12-01T11:21:50.004Z,-6.44
2022-12-01T11:22:52.116Z,-6.42
2022-12-01T11:23:56.407Z,-6.39
2022-12-01T11:25:01.730Z,-6.32
2022-12-01T11:26:07.398Z,-6.36
2022-12-01T11:27:18.570Z,-6.36
2022-12-01T11:28:21.550Z,-6.51
2022-12-01T11:29:36.434Z,-6.60
2022-12-01T11:30:38.747Z,-6.47
2022-12-01T11:31:50.548Z,-6.46
2022-12-01T11:32:56.049Z,-6.52
2022-12-01T11:33:58.122Z,-6.39
2022-12-01T11:35:04.521Z,-6.38
2022-12-01T11:36:11.799Z,-6.51
2022-12-01T11:37:20.692Z,-6.59
2022-12-01T11:38:31.176Z,-6.46
2022-12-01T11:39:40.604Z,-6.46
2022-12-01T11:40:49.209Z,-6.44
2022-12-01T11:41:56.836Z,-6.48
2022-12-01T11:43:03.098Z,-6.38
2022-12-01T11:44:35.661Z,-6.38
2022-12-01T11:45:41.482Z,-6.72
2022-12-01T11:46:50.466Z,-6.58
2022-12-01T11:48:20.749Z,-6.61
2022-12-01T11:50:44.613Z,-6.47
2022-12-01T11:51:47.645Z,-6.60
2022-12-01T11:52:49.712Z,-6.41
2022-12-01T11:54:08.108Z,-6.60
2022-12-01T11:55:13.330Z,-6.58
2022-12-01T11:56:26.189Z,-6.49
2022-12-01T11:57:34.620Z,-6.63
2022-12-01T11:58:37.599Z,-6.72
2022-12-01T11:59:41.606Z,-6.79
2022-12-01T12:00:50.749Z,-6.77
2022-12-01T12:02:01.834Z,-6.81
2022-12-01T12:03:03.938Z,-6.87
2022-12-01T12:04:29.825Z,-7.15
2022-12-01T12:05:42.629Z,-6.90
2022-12-01T12:06:57.448Z,-6.80
2022-12-01T12:08:02.548Z,-6.77
2022-12-01T12:09:07.435Z,-6.99
2022-12-01T12:10:25.107Z,-6.93
2022-12-01T12:11:36.861Z,-6.95
2022-12-01T12:12:53.115Z,-7.18
2022-12-01T12:14:18.601Z,-7.22
2022-12-01T12:16:05.698Z,-7.20
2022-12-01T12:20:08.595Z,-7.09
2022-12-01T12:21:51.526Z,-7.10
2022-12-01T12:23:26.021Z,-7.07
2022-12-01T12:24:46.301Z,-7.04
2022-12-01T12:26:06.383Z,-7.27
2022-12-01T12:27:38.429Z,-7.26
2022-12-01T12:29:12.350Z,-7.43
2022-12-01T12:30:20.878Z,-7.20
2022-12-01T12:31:44.710Z,-7.19
2022-12-01T12:33:08.600Z,-7.15
2022-12-01T12:34:50.161Z,-7.17
2022-12-01T12:36:19.098Z,-7.04
2022-12-01T12:37:39.279Z,-7.39
2022-12-01T12:38:53.370Z,-7.39
2022-12-01T12:40:35.888Z,-7.37
2022-12-01T12:41:46.042Z,-7.35
2022-12-01T12:42:59.869Z,-7.34
2022-12-01T12:44:13.399Z,-7.17
2022-12-01T12:45:46.313Z,-7.20
2022-12-01T12:46:51.826Z,-7.30
2022-12-01T12:48:06.836Z,-7.32
2022-12-01T12:49:32.583Z,-7.44
2022-12-01T12:51:03.546Z,-7.33
2022-12-01T12:52:16.149Z,-7.39
2022-12-01T12:53:25.674Z,-7.46
2022-12-01T12:54:50.046Z,-7.47
2022-12-01T12:55:58.645Z,-7.58
2022-12-01T12:57:41.020Z,-7.48
2022-12-01T12:59:05.689Z,-7.58
2022-12-01T13:00:16.255Z,-7.45
2022-12-01T13:01:47.820Z,-7.49
2022-12-01T13:02:56.927Z,-7.41
2022-12-01T13:04:12.349Z,-7.33
2022-12-01T13:05:37.682Z,-7.35
2022-12-01T13:06:45.247Z,-7.29
2022-12-01T13:08:11.412Z,-7.44
2022-12-01T13:09:39.108Z,-7.20
2022-12-01T13:10:48.435Z,-7.15
2022-12-01T13:12:15.958Z,-7.29
2022-12-01T13:13:23.662Z,-7.38
2022-12-01T13:14:37.228Z,-7.39
2022-12-01T13:15:42.756Z,-7.34
2022-12-01T13:16:49.530Z,-7.14
2022-12-01T13:18:13.706Z,-7.33
2022-12-01T13:19:22.752Z,-7.31
2022-12-01T13:20:29.110Z,-7.29
2022-12-01T13:21:43.763Z,-7.32
2022-12-01T13:22:48.353Z,-7.35
2022-12-01T13:23:52.630Z,-7.27
2022-12-01T13:24:54.891Z,-7.31
2022-12-01T13:26:00.982Z,-7.25
2022-12-01T13:27:11.052Z,-7.27
2022-12-01T13:28:53.180Z,-7.27
2022-12-01T13:29:56.689Z,-7.17
2022-12-01T13:31:07.917Z,-7.37
2022-12-01T13:32:34.591Z,-7.41
2022-12-01T13:33:39.159Z,-7.33
2022-12-01T13:34:48.029Z,-7.27
2022-12-01T13:36:15.421Z,-7.33
2022-12-01T13:37:36.597Z,-7.41
2022-12-01T13:38:40.511Z,-7.38
2022-12-01T13:39:44.967Z,-7.44
2022-12-01T13:40:48.341Z,-7.42
2022-12-01T13:42:22.245Z,-7.43
2022-12-01T13:43:24.517Z,-7.53
2022-12-01T13:44:32.057Z,-7.65
2022-12-01T13:45:37.121Z,-7.48
2022-12-01T13:46:42.010Z,-7.55
2022-12-01T13:48:08.017Z,-7.52
2022-12-01T13:49:40.776Z,-7.38
2022-12-01T13:50:44.043Z,-7.45
2022-12-01T13:52:23.464Z,-7.53
2022-12-01T13:53:49.340Z,-7.62
2022-12-01T13:55:10.230Z,-7.65
2022-12-01T13:56:17.633Z,-7.58
2022-12-01T13:57:27.974Z,-7.63
2022-12-01T13:58:33.251Z,-7.75
2022-12-01T14:00:05.933Z,-7.56
2022-12-01T14:01:22.254Z,-7.41
2022-12-01T14:02:31.428Z,-7.45
2022-12-01T14:03:41.312Z,-7.49
2022-12-01T14:04:49.953Z,-7.52
2022-12-01T14:06:12.914Z,-7.35
2022-12-01T14:07:26.188Z,-7.28
2022-12-01T14:08:29.758Z,-7.37
2022-12-01T14:09:34.028Z,-7.33
2022-12-01T14:10:37.690Z,-7.42
2022-12-01T14:11:40.870Z,-7.33
2022-12-01T14:12:49.344Z,-7.32
2022-12-01T14:14:25.969Z,-7.40
2022-12-01T14:15:42.484Z,-7.51
2022-12-01T14:16:58.750Z,-7.42
2022-12-01T14:18:27.422Z,-7.48
2022-12-01T14:19:41.136Z,-7.65
2022-12-01T14:20:47.617Z,-7.49
2022-12-01T14:21:52.963Z,-7.61
2022-12-01T14:23:14.452Z,-7.64
2022-12-01T14:24:37.733Z,-7.52
2022-12-01T14:25:43.087Z,-7.47
2022-12-01T14:26:50.574Z,-7.45
2022-12-01T14:27:58.524Z,-7.42
2022-12-01T14:29:11.746Z,-7.44
2022-12-01T14:30:48.307Z,-7.44
2022-12-01T14:32:00.528Z,-7.24
2022-12-01T14:33:40.473Z,-7.44
2022-12-01T14:34:43.440Z,-7.38
2022-12-01T14:35:46.334Z,-7.51
2022-12-01T14:36:57.189Z,-7.55
2022-12-01T14:38:00.191Z,-7.48
2022-12-01T14:39:05.787Z,-7.56
2022-12-01T14:40:19.351Z,-7.66
2022-12-01T14:41:26.154Z,-7.39
2022-12-01T14:42:50.217Z,-7.56
2022-12-01T14:44:04.243Z,-7.60
2022-12-01T14:45:12.075Z,-7.60
2022-12-01T14:46:26.127Z,-7.59
2022-12-01T14:47:37.751Z,-7.43
2022-12-01T14:48:46.177Z,-7.29
2022-12-01T14:50:10.246Z,-7.27
2022-12-01T14:51:25.779Z,-7.47
2022-12-01T14:52:33.751Z,-7.48
2022-12-01T14:53:40.912Z,-7.56
2022-12-01T14:54:46.872Z,-7.54
2022-12-01T14:55:56.523Z,-7.44
2022-12-01T14:57:06.784Z,-7.48